createdAt,value
2022-11-09T00:01:34.197Z,97877.31
2022-11-09T00:06:37.061Z,97871.84
2022-11-09T00:11:39.093Z,97869.09
2022-11-09T00:16:40.888Z,97877.28
2022-11-09T00:21:42.789Z,97887.81
2022-11-09T00:26:44.616Z,97892.06
2022-11-09T00:31:46.462Z,97885.44
2022-11-09T00:36:50.196Z,97889.69
2022-11-09T00:41:52.021Z,97890.47
2022-11-09T00:46:53.827Z,97890.84
2022-11-09T00:51:55.785Z,97896.63
2022-11-09T00:56:58.288Z,97904.38
2022-11-09T01:02:00.800Z,97901.66
2022-11-09T01:07:03.108Z,97896.34
2022-11-09T01:12:05.241Z,97895.94
2022-11-09T01:17:07.350Z,97896.72
2022-11-09T01:22:09.145Z,97905.97
2022-11-09T01:27:11.060Z,97894.22
2022-11-09T01:32:12.879Z,97894.94
2022-11-09T01:37:14.721Z,97906.53
2022-11-09T01:42:23.536Z,97899.50
2022-11-09T01:47:25.990Z,97899.84
2022-11-09T01:52:37.936Z,97895.91
2022-11-09T01:57:52.935Z,97898.63
2022-11-09T02:03:20.919Z,97902.53
2022-11-09T02:08:25.287Z,97899.75
2022-11-09T02:13:29.395Z,97894.69
2022-11-09T02:18:32.959Z,97889.63
2022-11-09T02:23:36.762Z,97900.09
2022-11-09T02:28:39.779Z,97886.81
2022-11-09T02:34:05.913Z,97888.31
2022-11-09T02:39:08.008Z,97876.56
2022-11-09T02:44:10.142Z,97878.06
2022-11-09T02:49:12.128Z,97879.16
2022-11-09T02:54:13.986Z,97879.13
2022-11-09T02:59:16.143Z,97870.91
2022-11-09T03:04:18.309Z,97867.41
2022-11-09T03:09:20.967Z,97868.91
2022-11-09T03:14:22.887Z,97870.78
2022-11-09T03:19:29.429Z,97880.03
2022-11-09T03:24:31.746Z,97864.44
2022-11-09T03:29:34.748Z,97872.16
2022-11-09T03:34:37.621Z,97865.53
2022-11-09T03:39:39.896Z,97855.75
2022-11-09T03:44:41.746Z,97861.16
2022-11-09T03:49:43.501Z,97874.28
2022-11-09T03:54:45.305Z,97869.19
2022-11-09T03:59:47.059Z,97871.84
2022-11-09T04:04:48.938Z,97865.16
2022-11-09T04:09:50.903Z,97861.56
2022-11-09T04:14:52.664Z,97870.09
2022-11-09T04:19:54.419Z,97867.00
2022-11-09T04:24:56.188Z,97859.25
2022-11-09T04:29:58.075Z,97863.53
2022-11-09T04:34:59.910Z,97864.63
2022-11-09T04:40:01.708Z,97865.31
2022-11-09T04:45:03.825Z,97877.69
2022-11-09T04:50:06.344Z,97861.38
2022-11-09T04:55:08.479Z,97863.72
2022-11-09T05:00:10.857Z,97859.75
2022-11-09T05:05:12.665Z,97865.97
2022-11-09T05:10:15.245Z,97854.38
2022-11-09T05:15:17.161Z,97861.38
2022-11-09T05:20:19.275Z,97866.06
2022-11-09T05:25:21.088Z,97872.31
2022-11-09T05:30:23.099Z,97876.28
2022-11-09T05:35:25.083Z,97881.34
2022-11-09T05:40:26.897Z,97874.78
2022-11-09T05:45:41.873Z,97880.31
2022-11-09T05:50:45.175Z,97885.75
2022-11-09T05:56:10.721Z,97886.56
2022-11-09T06:01:15.173Z,97908.25
2022-11-09T06:06:17.857Z,97931.50
2022-11-09T06:11:24.119Z,97902.06
2022-11-09T06:16:26.536Z,97906.66
2022-11-09T06:21:28.351Z,97906.63
2022-11-09T06:26:30.218Z,97920.94
2022-11-09T06:31:32.164Z,97923.59
2022-11-09T06:36:33.957Z,97933.31
2022-11-09T06:41:36.569Z,97924.44
2022-11-09T06:46:38.440Z,97924.44
2022-11-09T06:51:40.226Z,97929.88
2022-11-09T06:56:42.071Z,97927.56
2022-11-09T07:01:43.964Z,97940.72
2022-11-09T07:06:45.897Z,97939.47
2022-11-09T07:11:49.305Z,97934.91
2022-11-09T07:16:51.084Z,97944.59
2022-11-09T07:21:52.908Z,97939.59
2022-11-09T07:26:54.699Z,97933.84
2022-11-09T07:31:56.502Z,97949.50
2022-11-09T07:36:58.538Z,97951.22
2022-11-09T07:42:00.617Z,97949.81
2022-11-09T07:47:02.647Z,97955.41
2022-11-09T07:52:05.045Z,97951.28
2022-11-09T07:57:07.836Z,97959.59
2022-11-09T08:02:11.210Z,97964.38
2022-11-09T08:07:13.239Z,97976.91
2022-11-09T08:12:15.246Z,97976.94
2022-11-09T08:17:17.175Z,97986.41
2022-11-09T08:22:19.068Z,97981.16
2022-11-09T08:27:22.912Z,97976.19
2022-11-09T08:32:24.697Z,97975.13
2022-11-09T08:37:26.533Z,97975.97
2022-11-09T08:42:28.319Z,97975.25
2022-11-09T08:47:30.141Z,97967.94
2022-11-09T08:52:32.489Z,97963.72
2022-11-09T08:57:34.470Z,97970.41
2022-11-09T09:02:36.436Z,97968.50
2022-11-09T09:07:38.251Z,97969.34
2022-11-09T09:12:40.140Z,97978.31
2022-11-09T09:17:41.997Z,97985.75
2022-11-09T09:22:44.406Z,97984.59
2022-11-09T09:27:46.349Z,97984.97
2022-11-09T09:32:48.183Z,97985.00
2022-11-09T09:37:50.002Z,97990.44
2022-11-09T09:42:54.651Z,97978.78
2022-11-09T09:48:04.137Z,97977.97
2022-11-09T09:53:44.326Z,97979.53
2022-11-09T09:58:52.897Z,97973.69
2022-11-09T10:03:54.673Z,97981.09
2022-11-09T10:09:08.065Z,97959.22
2022-11-09T10:14:34.070Z,97953.00
2022-11-09T10:20:06.178Z,97951.06
2022-11-09T10:25:43.941Z,97938.59
2022-11-09T10:30:50.021Z,97931.91
2022-11-09T10:36:07.989Z,97926.06
2022-11-09T10:41:36.308Z,97909.69
2022-11-09T10:47:17.688Z,97916.34
2022-11-09T10:52:46.985Z,97927.25
2022-11-09T10:58:17.380Z,97924.13
2022-11-09T11:03:39.750Z,97925.31
2022-11-09T11:09:05.881Z,97914.78
2022-11-09T11:14:35.172Z,97916.00
2022-11-09T11:20:15.871Z,97919.50
2022-11-09T11:25:54.855Z,97899.22
2022-11-09T11:31:20.431Z,97908.56
2022-11-09T11:36:53.021Z,97921.81
2022-11-09T11:42:37.559Z,97908.56
2022-11-09T11:48:05.163Z,97903.09
2022-11-09T11:53:53.466Z,97886.72
2022-11-09T11:59:19.649Z,97900.78
2022-11-09T12:05:20.741Z,97893.00
2022-11-09T12:10:47.499Z,97882.03
2022-11-09T12:16:15.794Z,97897.63
2022-11-09T12:22:18.959Z,97899.16
2022-11-09T12:27:39.437Z,97896.78
2022-11-09T12:33:04.760Z,97886.66
2022-11-09T12:38:33.772Z,97891.38
2022-11-09T12:44:00.090Z,97886.63
2022-11-09T12:49:38.731Z,97896.75
2022-11-09T12:55:04.326Z,97903.41
2022-11-09T13:00:46.098Z,97903.78
2022-11-09T13:06:31.448Z,97907.28
2022-11-09T13:11:53.267Z,97902.19
2022-11-09T13:17:28.794Z,97899.09
2022-11-09T13:22:59.134Z,97890.38
2022-11-09T13:28:43.554Z,97892.75
2022-11-09T13:34:39.563Z,97901.22
2022-11-09T13:39:59.945Z,97920.59
2022-11-09T13:45:28.181Z,97903.19
2022-11-09T13:50:56.839Z,97900.69
2022-11-09T13:56:36.497Z,97905.59
2022-11-09T14:01:59.798Z,97906.34
2022-11-09T14:07:24.913Z,97905.88
2022-11-09T14:13:03.796Z,97903.72
2022-11-09T14:18:33.345Z,97916.56
2022-11-09T14:23:54.395Z,97921.16
2022-11-09T14:29:25.305Z,97929.31
2022-11-09T14:34:45.718Z,97934.88
2022-11-09T14:40:06.865Z,97937.31
2022-11-09T14:45:28.239Z,97935.03
2022-11-09T14:50:50.246Z,97935.06
2022-11-09T14:56:13.956Z,97949.16
2022-11-09T15:01:34.262Z,97960.09
2022-11-09T15:07:04.563Z,97943.66
2022-11-09T15:12:29.609Z,97947.16
2022-11-09T15:17:49.960Z,97953.78
2022-11-09T15:23:40.077Z,97953.78
2022-11-09T15:29:01.121Z,97970.91
2022-11-09T15:34:27.047Z,97961.91
2022-11-09T15:39:47.644Z,97971.22
2022-11-09T15:45:08.336Z,97970.78
2022-11-09T15:50:28.532Z,97982.44
2022-11-09T15:55:50.089Z,97980.84
2022-11-09T16:01:11.132Z,97996.38
2022-11-09T16:06:31.395Z,98002.63
2022-11-09T16:11:51.713Z,98010.31
2022-11-09T16:17:12.182Z,98010.28
2022-11-09T16:22:35.577Z,98023.50
2022-11-09T16:27:55.845Z,98036.31
2022-11-09T16:33:16.111Z,98037.03
2022-11-09T16:38:41.931Z,98031.19
2022-11-09T16:44:03.684Z,98041.25
2022-11-09T16:49:24.159Z,98052.91
2022-11-09T16:54:44.555Z,98046.31
2022-11-09T17:00:07.094Z,98045.13
2022-11-09T17:05:27.401Z,98052.91
2022-11-09T17:10:47.756Z,98060.63
2022-11-09T17:16:10.732Z,98062.06
2022-11-09T17:21:30.945Z,98061.19
2022-11-09T17:26:51.405Z,98072.31
2022-11-09T17:32:11.529Z,98077.19
2022-11-09T17:37:33.717Z,98058.78
2022-11-09T17:42:54.109Z,98065.78
2022-11-09T17:48:14.500Z,98064.63
2022-11-09T17:53:35.555Z,98076.25
2022-11-09T17:58:55.869Z,98069.31
2022-11-09T18:04:16.355Z,98082.09
2022-11-09T18:09:41.894Z,98089.50
2022-11-09T18:15:03.180Z,98100.50
2022-11-09T18:20:24.982Z,98087.72
2022-11-09T18:25:56.740Z,98075.78
2022-11-09T18:31:17.463Z,98085.06
2022-11-09T18:36:39.518Z,98082.41
2022-11-09T18:42:04.903Z,98087.69
2022-11-09T18:47:29.472Z,98095.13
2022-11-09T18:52:50.987Z,98097.22
2022-11-09T18:58:12.041Z,98099.25
2022-11-09T19:03:33.596Z,98094.25
2022-11-09T19:09:13.266Z,98100.16
2022-11-09T19:14:44.365Z,98102.94
2022-11-09T19:20:06.106Z,98102.94
2022-11-09T19:25:27.963Z,98124.06
2022-11-09T19:30:48.539Z,98130.31
2022-11-09T19:41:52.879Z,98120.22
2022-11-09T19:47:14.677Z,98121.00
2022-11-09T19:52:37.851Z,98120.63
2022-11-09T19:57:58.459Z,98129.22
2022-11-09T20:03:20.618Z,98138.97
2022-11-09T20:08:42.409Z,98142.09
2022-11-09T20:14:05.950Z,98142.88
2022-11-09T20:19:26.854Z,98149.91
2022-11-09T20:24:47.552Z,98153.81
2022-11-09T20:30:08.259Z,98152.25
2022-11-09T20:35:28.766Z,98148.34
2022-11-09T20:40:56.328Z,98157.38
2022-11-09T20:46:19.963Z,98153.81
2022-11-09T20:51:40.775Z,98160.78
2022-11-09T20:57:01.529Z,98165.13
2022-11-09T21:02:22.012Z,98169.47
2022-11-09T21:07:42.752Z,98166.00
2022-11-09T21:13:03.075Z,98184.69
2022-11-09T21:18:24.176Z,98189.78
2022-11-09T21:24:03.744Z,98194.75
2022-11-09T21:29:43.792Z,98196.69
2022-11-09T21:35:04.694Z,98196.69
2022-11-09T21:40:25.076Z,98199.81
2022-11-09T21:45:49.919Z,98195.88
2022-11-09T21:51:10.194Z,98211.44
2022-11-09T21:56:30.910Z,98215.22
2022-11-09T22:01:52.261Z,98216.00
2022-11-09T22:07:13.036Z,98233.94
2022-11-09T22:12:51.932Z,98244.41
2022-11-09T22:18:31.889Z,98243.97
2022-11-09T22:23:52.087Z,98246.66
2022-11-09T22:29:12.598Z,98247.03
2022-11-09T22:34:33.224Z,98240.88
2022-11-09T22:39:53.556Z,98223.59
2022-11-09T22:45:14.012Z,98229.03
2022-11-09T22:50:34.718Z,98244.56
2022-11-09T22:55:57.568Z,98236.00
2022-11-09T23:01:20.557Z,98234.38
2022-11-09T23:06:41.006Z,98229.69
2022-11-09T23:12:01.395Z,98246.75
2022-11-09T23:17:40.328Z,98253.72
2022-11-09T23:23:00.706Z,98256.06
2022-11-09T23:28:21.037Z,98270.03
2022-11-09T23:33:41.849Z,98266.09
2022-11-09T23:39:02.076Z,98269.94
2022-11-09T23:44:22.401Z,98279.34
2022-11-09T23:49:42.884Z,98285.53
2022-11-09T23:55:03.349Z,98289.75
